createdAt,value
2018-07-03T14:11:08.699Z,48.60
2018-07-03T14:13:36.900Z,49.50
2018-07-03T14:16:05.104Z,49.70
2018-07-03T14:18:33.288Z,48.80
2018-07-03T14:21:01.466Z,49.20
2018-07-03T14:23:30.452Z,49.70
2018-07-03T14:25:58.746Z,49.10
2018-07-03T14:28:26.963Z,50.00
2018-07-03T14:30:55.204Z,49.90
2018-07-03T14:33:23.448Z,50.60
2018-07-03T14:35:51.630Z,51.70
2018-07-03T14:38:19.816Z,52.70
2018-07-03T14:40:48.004Z,54.50
2018-07-03T14:43:16.201Z,56.30
2018-07-03T14:45:44.384Z,57.50
2018-07-03T14:48:12.645Z,58.60
2018-07-03T14:50:40.878Z,59.20
2018-07-03T14:53:09.029Z,60.60
2018-07-03T14:55:37.204Z,62.00
2018-07-03T14:58:05.541Z,63.90
2018-07-03T15:00:33.846Z,65.00
2018-07-03T15:03:02.066Z,66.60
2018-07-03T15:05:30.245Z,65.70
2018-07-03T15:07:58.428Z,67.50
2018-07-03T15:10:26.996Z,67.50
2018-07-03T15:12:55.928Z,67.80
2018-07-03T15:15:24.391Z,68.50
2018-07-03T15:17:52.597Z,67.80
2018-07-03T15:20:20.978Z,66.90
2018-07-03T15:22:49.290Z,68.20
2018-07-03T15:25:18.476Z,68.40
2018-07-03T15:27:46.717Z,69.30
2018-07-03T15:30:17.157Z,70.60
2018-07-03T15:32:45.355Z,70.20
2018-07-03T15:35:13.560Z,70.60
2018-07-03T15:37:41.762Z,71.30
2018-07-03T15:40:09.996Z,72.40
2018-07-03T15:42:38.218Z,71.00
2018-07-03T15:45:10.737Z,71.40
2018-07-03T15:47:38.936Z,70.40
2018-07-03T15:50:08.174Z,71.70
2018-07-03T15:52:36.441Z,71.40
2018-07-03T15:55:04.739Z,71.70
2018-07-03T15:57:32.940Z,72.10
2018-07-03T16:00:01.129Z,72.20
2018-07-03T16:02:29.304Z,72.50
2018-07-03T16:05:13.403Z,72.80
2018-07-03T16:09:57.477Z,73.70
2018-07-03T16:12:25.658Z,74.00
2018-07-03T16:14:53.843Z,74.10
2018-07-03T16:17:22.023Z,73.90
2018-07-03T16:19:55.793Z,74.40
2018-07-03T16:22:24.013Z,73.70
2018-07-03T16:24:52.263Z,74.10
2018-07-03T16:27:20.529Z,74.20
2018-07-03T16:29:48.740Z,74.30
2018-07-03T16:32:16.940Z,73.30
2018-07-03T16:34:45.140Z,73.30
2018-07-03T16:37:13.437Z,72.40
2018-07-03T16:39:41.629Z,71.20
2018-07-03T16:42:09.871Z,70.90
2018-07-03T16:44:38.098Z,70.30
2018-07-03T16:47:06.329Z,70.50
2018-07-03T16:49:34.534Z,69.90
2018-07-03T16:52:02.776Z,69.30
2018-07-03T16:54:30.992Z,70.10
2018-07-03T16:56:59.210Z,70.80
2018-07-03T16:59:27.420Z,71.10
2018-07-03T17:01:55.765Z,71.80
2018-07-03T17:04:23.969Z,70.60
2018-07-03T17:06:52.193Z,70.50
2018-07-03T17:09:20.384Z,70.60
2018-07-03T17:11:48.577Z,71.10
2018-07-03T17:14:16.752Z,71.00
2018-07-03T17:16:45.025Z,71.80
2018-07-03T17:19:18.685Z,72.40
2018-07-03T17:21:46.881Z,71.90
2018-07-03T17:24:15.060Z,71.70
2018-07-03T17:26:43.716Z,71.40
2018-07-03T17:29:11.899Z,72.20
2018-07-03T17:31:40.088Z,71.80
2018-07-03T17:34:08.356Z,70.90
2018-07-03T17:36:36.533Z,72.10
2018-07-03T17:39:13.224Z,72.00
2018-07-03T17:41:53.417Z,72.80
2018-07-03T17:45:31.717Z,73.30
2018-07-03T17:48:00.811Z,74.40
2018-07-03T17:50:29.054Z,74.90
2018-07-03T17:52:57.336Z,74.70
2018-07-03T17:55:25.620Z,75.10
2018-07-03T17:57:53.792Z,76.00
2018-07-03T18:00:22.291Z,75.70
2018-07-03T18:02:50.765Z,75.50
2018-07-03T18:05:18.975Z,76.00
2018-07-03T18:07:47.449Z,76.40
2018-07-03T18:10:15.684Z,76.80
2018-07-03T18:12:43.891Z,77.30
2018-07-03T18:15:12.193Z,78.00
2018-07-03T18:17:40.529Z,78.90
2018-07-03T18:20:08.728Z,78.20
2018-07-03T18:22:36.901Z,78.80
2018-07-03T18:25:05.331Z,79.50
2018-07-03T18:27:33.524Z,79.50
2018-07-03T18:30:01.710Z,79.80
2018-07-03T18:32:29.894Z,81.30
2018-07-03T18:34:58.149Z,81.20
2018-07-03T18:37:26.332Z,81.50
2018-07-03T18:39:54.532Z,81.80
2018-07-03T18:42:22.703Z,82.90
2018-07-03T18:44:50.876Z,83.30
2018-07-03T18:47:19.069Z,83.80
2018-07-03T18:49:47.250Z,84.20
2018-07-03T18:52:15.437Z,84.90
2018-07-03T18:54:43.613Z,85.50
2018-07-03T18:57:11.812Z,86.00
2018-07-03T18:59:40.045Z,86.60
2018-07-03T19:02:08.241Z,87.10
2018-07-03T19:04:36.713Z,87.30
2018-07-03T19:07:05.471Z,87.80
2018-07-03T19:09:33.723Z,88.30
2018-07-03T19:12:01.913Z,88.80
2018-07-03T19:14:30.156Z,89.30
2018-07-03T19:16:58.426Z,89.90
2018-07-03T19:19:26.657Z,90.00
2018-07-03T19:21:54.985Z,90.20
2018-07-03T19:24:23.289Z,90.50
2018-07-03T19:26:51.475Z,90.70
2018-07-03T19:29:19.656Z,90.80
2018-07-03T19:31:47.938Z,91.40
2018-07-03T19:34:16.137Z,91.90
2018-07-03T19:36:44.362Z,92.50
2018-07-03T19:39:13.831Z,92.60
2018-07-03T19:41:42.681Z,92.80
2018-07-03T19:44:11.172Z,92.80
2018-07-03T19:46:39.836Z,92.90
2018-07-03T19:51:36.128Z,93.30
2018-07-03T19:54:04.392Z,93.70
2018-07-03T19:56:32.592Z,93.70
2018-07-03T19:59:00.802Z,94.20
2018-07-03T20:01:29.056Z,94.30
2018-07-03T20:03:57.244Z,94.40
2018-07-03T20:06:25.445Z,94.70
2018-07-03T20:08:53.626Z,95.30
2018-07-03T20:11:21.804Z,95.70
2018-07-03T20:13:50.112Z,96.00
2018-07-03T20:16:18.513Z,96.50
2018-07-03T20:18:46.743Z,96.80
2018-07-03T20:23:42.900Z,97.60
2018-07-03T20:26:11.247Z,97.80
2018-07-03T20:28:39.432Z,98.00
2018-07-03T20:31:07.650Z,98.50
2018-07-03T20:33:35.872Z,98.90
2018-07-03T20:36:04.093Z,98.70
2018-07-03T20:38:32.298Z,99.20
2018-07-03T20:41:03.142Z,99.00
2018-07-03T20:43:32.799Z,99.10
2018-07-03T20:46:01.054Z,99.30
2018-07-03T20:48:29.557Z,99.20
2018-07-03T20:50:58.228Z,99.40
2018-07-03T20:53:26.534Z,99.50
2018-07-03T20:55:54.803Z,99.50
2018-07-03T20:58:23.202Z,99.70
2018-07-03T21:00:51.438Z,99.90
2018-07-03T21:03:19.828Z,99.90
2018-07-03T21:05:48.130Z,99.90
2018-07-03T21:08:16.310Z,99.90
2018-07-03T21:10:44.574Z,99.90
2018-07-03T21:13:12.801Z,99.90
2018-07-03T21:15:41.108Z,99.90
2018-07-03T21:18:09.333Z,99.90
2018-07-03T21:20:37.561Z,99.90
2018-07-03T21:23:05.789Z,99.90
2018-07-03T21:25:34.059Z,99.90
2018-07-03T21:28:02.278Z,99.90
2018-07-03T21:30:30.890Z,99.90
2018-07-03T21:32:59.226Z,99.90
2018-07-03T21:35:27.434Z,99.90
2018-07-03T21:37:55.670Z,99.90
2018-07-03T21:40:23.903Z,99.90
2018-07-03T21:42:52.198Z,99.90
2018-07-03T21:45:20.426Z,99.90
2018-07-03T21:47:48.671Z,99.90
2018-07-03T21:50:16.897Z,99.90
2018-07-03T21:52:45.198Z,99.90
2018-07-03T21:55:13.423Z,99.90
2018-07-03T21:57:41.628Z,99.90
2018-07-03T22:00:09.945Z,99.90
2018-07-03T22:02:38.242Z,99.90
2018-07-03T22:05:06.888Z,99.90
2018-07-03T22:07:35.085Z,99.90
2018-07-03T22:10:03.620Z,99.90
2018-07-03T22:12:31.833Z,99.90
2018-07-03T22:15:00.052Z,99.90
2018-07-03T22:17:28.243Z,99.90
2018-07-03T22:19:56.429Z,99.90
2018-07-03T22:22:24.625Z,99.90
2018-07-03T22:24:52.809Z,99.90
2018-07-03T22:27:21.007Z,99.90
2018-07-03T22:29:49.214Z,99.90
2018-07-03T22:32:17.409Z,99.90
2018-07-03T22:34:45.597Z,99.90
2018-07-03T22:37:13.786Z,99.90
2018-07-03T22:39:41.987Z,99.90
2018-07-03T22:42:10.284Z,99.90
2018-07-03T22:47:06.470Z,99.90
2018-07-03T22:49:34.672Z,99.90
2018-07-03T22:52:02.857Z,99.90
2018-07-03T22:54:31.046Z,99.90
2018-07-03T22:56:59.237Z,99.90
2018-07-03T22:59:27.457Z,99.90
2018-07-03T23:01:55.689Z,99.90
2018-07-03T23:04:23.870Z,99.90
2018-07-03T23:09:20.009Z,99.90
2018-07-03T23:11:48.190Z,99.90
2018-07-03T23:14:16.377Z,99.90
2018-07-03T23:16:44.557Z,99.90
2018-07-03T23:19:12.741Z,99.90
2018-07-03T23:21:40.921Z,99.90
2018-07-03T23:24:09.191Z,99.90
2018-07-03T23:26:37.365Z,99.90
2018-07-03T23:29:05.562Z,99.90
2018-07-03T23:31:33.789Z,99.90
2018-07-03T23:34:01.986Z,99.90
2018-07-03T23:36:30.238Z,99.90
2018-07-03T23:38:58.427Z,99.90
2018-07-03T23:41:26.639Z,99.90
2018-07-03T23:43:54.870Z,99.90
2018-07-03T23:46:34.446Z,99.90
2018-07-03T23:49:14.145Z,99.90
2018-07-03T23:51:53.645Z,99.90
2018-07-03T23:54:33.313Z,99.90
2018-07-03T23:57:13.063Z,99.90
2018-07-03T23:59:52.732Z,99.90
